createdAt,value
2023-03-06T00:01:00.660Z,3.40
2023-03-06T00:03:28.526Z,3.70
2023-03-06T00:05:57.803Z,3.50
2023-03-06T00:08:27.262Z,3.50
2023-03-06T00:10:56.344Z,3.40
2023-03-06T00:13:24.451Z,3.20
2023-03-06T00:15:51.861Z,3.40
2023-03-06T00:18:18.858Z,3.20
2023-03-06T00:20:46.360Z,3.20
2023-03-06T00:23:13.685Z,3.30
2023-03-06T00:25:45.615Z,3.20
2023-03-06T00:28:16.083Z,3.20
2023-03-06T00:30:44.022Z,3.60
2023-03-06T00:33:11.379Z,3.10
2023-03-06T00:35:40.214Z,3.30
2023-03-06T00:38:09.936Z,3.20
2023-03-06T00:40:37.278Z,3.00
2023-03-06T00:43:04.286Z,3.00
2023-03-06T00:45:31.348Z,3.10
2023-03-06T00:47:58.858Z,3.00
2023-03-06T00:50:26.168Z,3.30
2023-03-06T00:52:53.201Z,3.30
2023-03-06T00:55:20.277Z,2.90
2023-03-06T00:57:48.577Z,3.10
2023-03-06T01:00:16.226Z,3.10
2023-03-06T01:02:43.547Z,2.80
2023-03-06T01:05:14.260Z,2.90
2023-03-06T01:07:41.763Z,3.10
2023-03-06T01:10:10.375Z,2.70
2023-03-06T01:12:37.599Z,2.60
2023-03-06T01:15:25.489Z,2.60
2023-03-06T01:21:59.371Z,2.50
2023-03-06T01:24:51.076Z,2.50
2023-03-06T01:27:21.266Z,2.50
2023-03-06T01:29:48.412Z,2.50
2023-03-06T01:32:15.758Z,2.60
2023-03-06T01:34:42.761Z,2.90
2023-03-06T01:37:10.025Z,2.90
2023-03-06T01:39:37.165Z,2.70
2023-03-06T01:42:04.739Z,3.00
2023-03-06T01:44:32.287Z,2.80
2023-03-06T01:47:02.223Z,2.80
2023-03-06T01:49:41.198Z,2.80
2023-03-06T01:52:18.353Z,2.80
2023-03-06T01:54:56.937Z,2.90
2023-03-06T01:57:29.385Z,2.90
2023-03-06T02:00:13.741Z,2.90
2023-03-06T02:02:56.901Z,3.00
2023-03-06T02:05:24.635Z,3.20
2023-03-06T02:07:52.408Z,2.90
2023-03-06T02:10:20.802Z,3.00
2023-03-06T02:12:49.759Z,3.00
2023-03-06T02:15:24.459Z,3.30
2023-03-06T02:17:53.006Z,3.10
2023-03-06T02:20:26.559Z,3.10
2023-03-06T02:23:33.853Z,2.90
2023-03-06T02:26:03.228Z,2.70
2023-03-06T02:28:34.273Z,2.70
2023-03-06T03:36:24.926Z,2.30
2023-03-06T03:38:57.457Z,2.40
2023-03-06T03:44:34.795Z,2.50
2023-03-06T03:47:02.270Z,2.30
2023-03-06T03:49:32.108Z,2.30
2023-03-06T03:57:07.580Z,2.10
2023-03-06T04:13:14.366Z,2.00
2023-03-06T06:16:40.446Z,1.90
2023-03-06T06:19:08.264Z,1.90
2023-03-06T06:27:23.254Z,1.90
2023-03-06T06:29:54.014Z,2.10
2023-03-06T06:32:21.381Z,1.90
2023-03-06T06:34:48.795Z,1.90
2023-03-06T06:37:16.836Z,2.00
2023-03-06T06:39:44.046Z,2.00
2023-03-06T06:42:29.422Z,2.10
2023-03-06T06:44:57.739Z,2.00
2023-03-06T06:47:26.022Z,2.00
2023-03-06T06:49:55.860Z,2.20
2023-03-06T06:52:25.119Z,2.10
2023-03-06T06:54:53.191Z,2.60
2023-03-06T06:57:20.639Z,2.20
2023-03-06T06:59:47.709Z,2.30
2023-03-06T07:02:16.503Z,2.40
2023-03-06T07:05:00.769Z,2.60
2023-03-06T07:07:31.116Z,2.30
2023-03-06T07:09:58.169Z,2.50
2023-03-06T07:12:25.734Z,2.50
2023-03-06T07:14:53.225Z,2.60
2023-03-06T07:17:20.279Z,2.50
2023-03-06T07:19:48.321Z,2.50
2023-03-06T07:22:15.606Z,2.90
2023-03-06T07:24:42.903Z,3.00
2023-03-06T07:27:10.149Z,2.90
2023-03-06T07:29:37.483Z,2.80
2023-03-06T07:32:04.794Z,2.70
2023-03-06T07:34:32.266Z,2.60
2023-03-06T07:36:59.346Z,3.10
2023-03-06T07:39:28.165Z,2.60
2023-03-06T07:41:55.374Z,2.80
2023-03-06T07:44:22.775Z,2.80
2023-03-06T07:46:49.864Z,3.30
2023-03-06T07:49:17.483Z,3.00
2023-03-06T07:51:45.076Z,2.90
2023-03-06T07:54:12.417Z,2.80
2023-03-06T07:56:39.498Z,2.90
2023-03-06T07:59:06.681Z,2.90
2023-03-06T08:01:33.894Z,3.00
2023-03-06T08:04:02.255Z,3.10
2023-03-06T08:06:29.924Z,2.90
2023-03-06T08:08:57.682Z,3.00
2023-03-06T08:11:29.140Z,3.10
2023-03-06T08:13:58.005Z,3.10
2023-03-06T08:16:29.808Z,3.30
2023-03-06T08:18:58.068Z,3.30
2023-03-06T08:21:28.215Z,3.30
2023-03-06T08:23:55.440Z,3.30
2023-03-06T08:26:32.140Z,3.40
2023-03-06T08:29:02.149Z,3.40
2023-03-06T08:31:38.888Z,3.40
2023-03-06T08:34:10.250Z,3.40
2023-03-06T08:36:37.634Z,3.30
2023-03-06T08:39:05.411Z,3.20
2023-03-06T08:41:33.274Z,3.20
2023-03-06T08:44:00.616Z,3.30
2023-03-06T08:46:29.802Z,3.30
2023-03-06T08:48:57.696Z,3.30
2023-03-06T08:51:25.906Z,3.50
2023-03-06T08:53:53.401Z,3.50
2023-03-06T08:56:27.793Z,3.50
2023-03-06T08:58:56.606Z,3.40
2023-03-06T09:01:29.000Z,3.60
2023-03-06T09:03:59.859Z,3.60
2023-03-06T09:06:31.666Z,3.80
2023-03-06T09:08:59.672Z,4.00
2023-03-06T09:11:28.089Z,4.00
2023-03-06T09:13:55.866Z,4.30
2023-03-06T09:16:23.809Z,4.50
2023-03-06T09:18:53.188Z,4.50
2023-03-06T09:21:22.664Z,4.60
2023-03-06T09:23:50.620Z,4.90
2023-03-06T09:26:18.665Z,5.10
2023-03-06T09:28:46.500Z,5.00
2023-03-06T09:31:18.813Z,5.10
2023-03-06T09:33:46.686Z,5.20
2023-03-06T09:36:21.194Z,5.30
2023-03-06T09:38:49.932Z,4.90
2023-03-06T09:41:31.207Z,5.10
2023-03-06T09:44:23.521Z,5.10
2023-03-06T09:47:32.188Z,5.00
2023-03-06T09:50:17.074Z,5.20
2023-03-06T09:53:05.406Z,5.20
2023-03-06T09:55:38.146Z,5.20
2023-03-06T09:58:23.285Z,5.30
2023-03-06T10:01:02.185Z,5.60
2023-03-06T10:03:45.351Z,5.60
2023-03-06T10:06:34.489Z,5.30
2023-03-06T10:09:41.435Z,5.20
2023-03-06T10:12:28.675Z,5.10
2023-03-06T10:15:22.434Z,5.30
2023-03-06T10:17:49.990Z,5.50
2023-03-06T10:20:41.243Z,5.60
2023-03-06T10:23:55.445Z,5.70
2023-03-06T10:26:32.661Z,5.70
2023-03-06T10:30:01.704Z,5.60
2023-03-06T10:33:19.852Z,5.90
2023-03-06T10:35:53.385Z,5.80
2023-03-06T10:38:32.740Z,5.60
2023-03-06T10:41:12.011Z,5.80
2023-03-06T10:44:05.711Z,5.90
2023-03-06T10:46:47.000Z,5.80
2023-03-06T10:49:32.511Z,5.50
2023-03-06T10:52:14.768Z,5.80
2023-03-06T10:54:45.173Z,6.10
2023-03-06T10:57:29.551Z,6.10
2023-03-06T11:00:06.514Z,6.00
2023-03-06T11:02:41.220Z,6.20
2023-03-06T11:05:21.114Z,6.30
2023-03-06T11:07:59.511Z,6.20
2023-03-06T11:10:30.047Z,6.10
2023-03-06T11:13:07.757Z,6.20
2023-03-06T11:15:35.690Z,6.20
2023-03-06T11:18:34.995Z,6.20
2023-03-06T11:21:07.414Z,6.00
2023-03-06T11:23:47.550Z,5.90
2023-03-06T11:26:18.011Z,5.90
2023-03-06T11:29:23.061Z,6.10
2023-03-06T11:32:31.745Z,6.40
2023-03-06T11:35:09.529Z,6.60
2023-03-06T11:38:04.923Z,6.60
2023-03-06T11:40:57.570Z,6.20
2023-03-06T11:43:43.512Z,6.40
2023-03-06T11:46:26.545Z,6.50
2023-03-06T11:49:16.413Z,6.60
2023-03-06T11:51:51.825Z,6.60
2023-03-06T11:54:19.091Z,6.90
2023-03-06T11:57:12.774Z,6.80
2023-03-06T12:00:04.605Z,6.80
2023-03-06T12:03:02.181Z,6.90
2023-03-06T12:05:58.480Z,7.00
2023-03-06T12:09:05.216Z,6.90
2023-03-06T12:12:10.450Z,7.10
2023-03-06T12:14:55.800Z,6.90
2023-03-06T12:17:42.385Z,7.20
2023-03-06T12:20:58.283Z,7.30
2023-03-06T12:24:01.034Z,7.50
2023-03-06T12:26:57.270Z,7.50
2023-03-06T12:30:14.522Z,7.60
2023-03-06T12:33:05.972Z,7.30
2023-03-06T12:36:00.415Z,7.20
2023-03-06T12:39:04.508Z,7.30
2023-03-06T12:42:01.621Z,7.20
2023-03-06T12:44:32.499Z,7.30
2023-03-06T12:47:11.823Z,7.30
2023-03-06T12:49:44.269Z,7.20
2023-03-06T12:52:30.399Z,6.90
2023-03-06T12:55:00.884Z,6.50
2023-03-06T12:57:28.071Z,6.20
2023-03-06T12:59:56.250Z,5.90
2023-03-06T13:02:53.766Z,5.70
2023-03-06T13:05:50.443Z,5.60
2023-03-06T13:08:44.258Z,5.70
2023-03-06T13:11:28.637Z,5.50
2023-03-06T13:13:56.409Z,5.20
2023-03-06T13:16:34.787Z,5.20
2023-03-06T13:19:12.713Z,4.60
2023-03-06T13:21:46.587Z,4.60
2023-03-06T13:24:35.686Z,4.50
2023-03-06T13:27:05.927Z,4.60
2023-03-06T13:29:39.106Z,4.60
2023-03-06T13:32:19.386Z,4.50
2023-03-06T13:34:50.185Z,4.60
2023-03-06T13:37:17.305Z,4.60
2023-03-06T13:39:59.638Z,4.50
2023-03-06T13:42:34.353Z,4.40
2023-03-06T13:45:22.819Z,4.40
2023-03-06T13:50:48.001Z,4.50
2023-03-06T13:53:48.704Z,4.60
2023-03-06T13:56:41.513Z,4.80
2023-03-06T13:59:34.718Z,4.90
2023-03-06T14:02:52.969Z,5.20
2023-03-06T14:05:20.658Z,5.30
2023-03-06T14:08:19.459Z,5.40
2023-03-06T14:10:59.396Z,5.30
2023-03-06T14:13:45.336Z,5.30
2023-03-06T14:16:23.275Z,5.50
2023-03-06T14:18:53.932Z,5.70
2023-03-06T14:21:40.400Z,5.90
2023-03-06T14:24:16.294Z,6.00
2023-03-06T14:26:49.712Z,6.20
2023-03-06T14:29:26.508Z,6.10
2023-03-06T14:31:57.544Z,6.20
2023-03-06T14:34:45.588Z,6.20
2023-03-06T14:37:25.207Z,6.30
2023-03-06T14:39:52.916Z,6.40
2023-03-06T14:42:28.959Z,6.30
2023-03-06T14:45:17.604Z,6.30
2023-03-06T14:47:51.393Z,6.50
2023-03-06T14:50:29.282Z,6.60
2023-03-06T14:53:04.224Z,6.60
2023-03-06T14:55:35.533Z,6.70
2023-03-06T14:58:15.041Z,6.70
2023-03-06T15:00:46.077Z,6.60
2023-03-06T15:03:19.670Z,6.70
2023-03-06T15:05:48.158Z,6.90
2023-03-06T15:08:23.682Z,7.00
2023-03-06T15:11:03.986Z,7.20
2023-03-06T15:13:33.319Z,6.80
2023-03-06T15:16:29.995Z,6.90
2023-03-06T15:19:01.363Z,7.00
2023-03-06T15:21:39.208Z,7.00
2023-03-06T15:24:35.543Z,6.90
2023-03-06T15:27:06.945Z,6.80
2023-03-06T15:29:39.236Z,6.80
2023-03-06T15:32:25.099Z,6.70
2023-03-06T15:35:29.523Z,6.80
2023-03-06T15:37:59.104Z,6.70
2023-03-06T15:40:31.138Z,6.60
2023-03-06T15:42:59.337Z,6.70
2023-03-06T15:45:28.399Z,6.70
2023-03-06T15:47:56.291Z,6.70
2023-03-06T15:54:32.905Z,6.70
2023-03-06T15:57:00.774Z,6.80
2023-03-06T15:59:33.279Z,6.70
2023-03-06T16:02:11.916Z,6.70
2023-03-06T16:04:39.066Z,6.70
2023-03-06T16:07:06.525Z,6.60
2023-03-06T16:09:33.779Z,6.60
2023-03-06T16:12:01.184Z,6.60
2023-03-06T16:14:28.457Z,6.60
2023-03-06T16:16:57.516Z,6.50
2023-03-06T16:19:27.730Z,6.60
2023-03-06T16:21:56.459Z,6.50
2023-03-06T16:24:26.443Z,6.40
2023-03-06T16:26:55.210Z,6.40
2023-03-06T16:29:26.004Z,6.40
2023-03-06T16:31:55.434Z,6.30
2023-03-06T16:34:22.871Z,6.30
2023-03-06T16:36:50.861Z,6.30
2023-03-06T16:39:21.366Z,6.30
2023-03-06T16:41:52.144Z,6.20
2023-03-06T16:44:20.830Z,6.20
2023-03-06T16:46:50.188Z,6.10
2023-03-06T16:49:24.656Z,6.10
2023-03-06T16:51:53.944Z,6.10
2023-03-06T16:54:24.271Z,6.10
2023-03-06T16:56:51.677Z,6.10
2023-03-06T16:59:19.101Z,6.10
2023-03-06T17:01:46.549Z,6.00
2023-03-06T17:04:14.017Z,6.00
2023-03-06T17:06:41.937Z,6.00
2023-03-06T17:09:10.930Z,6.00
2023-03-06T17:11:43.140Z,5.90
2023-03-06T17:14:10.368Z,5.90
2023-03-06T17:16:40.402Z,5.90
2023-03-06T17:19:08.418Z,5.90
2023-03-06T17:21:38.455Z,5.90
2023-03-06T17:24:07.259Z,5.90
2023-03-06T17:26:36.573Z,5.80
2023-03-06T17:29:06.954Z,5.70
2023-03-06T17:31:34.581Z,5.60
2023-03-06T17:34:02.624Z,5.60
2023-03-06T17:36:32.094Z,5.50
2023-03-06T17:39:02.114Z,5.40
2023-03-06T17:41:30.121Z,5.40
2023-03-06T17:43:58.422Z,5.30
2023-03-06T17:46:26.215Z,5.40
2023-03-06T17:48:54.850Z,5.40
2023-03-06T17:51:22.310Z,5.40
2023-03-06T17:53:52.256Z,5.30
2023-03-06T17:56:21.212Z,5.30
2023-03-06T17:58:48.683Z,5.30
2023-03-06T18:01:21.450Z,5.30
2023-03-06T18:03:50.776Z,5.30
2023-03-06T18:06:20.843Z,5.20
2023-03-06T18:08:51.608Z,5.10
2023-03-06T18:11:20.438Z,5.00
2023-03-06T18:13:48.762Z,5.00
2023-03-06T18:16:20.090Z,4.90
2023-03-06T18:18:47.533Z,5.00
2023-03-06T18:21:16.555Z,5.00
2023-03-06T18:23:44.638Z,5.00
2023-03-06T18:26:13.190Z,5.00
2023-03-06T18:28:44.678Z,5.00
2023-03-06T18:31:28.253Z,5.00
2023-03-06T18:33:59.243Z,4.90
2023-03-06T18:36:30.143Z,5.00
2023-03-06T18:38:58.552Z,5.00
2023-03-06T18:41:26.366Z,5.00
2023-03-06T18:43:59.355Z,5.00
2023-03-06T18:46:33.940Z,5.00
2023-03-06T18:49:01.979Z,5.00
2023-03-06T18:51:29.536Z,5.00
2023-03-06T18:53:59.186Z,5.00
2023-03-06T18:56:26.624Z,5.00
2023-03-06T18:58:54.499Z,5.10
2023-03-06T19:01:23.270Z,5.00
2023-03-06T19:03:50.833Z,5.10
2023-03-06T19:06:18.237Z,5.00
2023-03-06T19:08:45.502Z,5.10
2023-03-06T19:11:15.922Z,5.10
2023-03-06T19:13:44.466Z,5.00
2023-03-06T19:16:22.610Z,5.00
2023-03-06T19:18:50.037Z,4.90
2023-03-06T19:21:21.340Z,4.80
2023-03-06T19:23:49.587Z,4.90
2023-03-06T19:26:21.081Z,4.90
2023-03-06T19:28:49.708Z,4.80
2023-03-06T19:31:20.775Z,4.80
2023-03-06T19:33:49.939Z,4.80
2023-03-06T19:36:18.684Z,4.70
2023-03-06T19:38:50.382Z,4.70
2023-03-06T19:41:17.970Z,4.70
2023-03-06T19:43:54.082Z,4.70
2023-03-06T19:46:23.229Z,4.60
2023-03-06T19:48:59.315Z,4.50
2023-03-06T19:51:28.334Z,4.50
2023-03-06T19:53:57.895Z,4.50
2023-03-06T19:56:28.913Z,4.50
2023-03-06T19:58:56.855Z,4.50
2023-03-06T20:01:27.166Z,4.40
2023-03-06T20:03:59.763Z,4.40
2023-03-06T20:06:33.777Z,4.30
2023-03-06T20:09:05.660Z,4.30
2023-03-06T20:11:33.177Z,4.20
2023-03-06T20:14:03.007Z,4.20
2023-03-06T20:16:46.908Z,4.20
2023-03-06T20:19:19.699Z,4.20
2023-03-06T20:21:49.112Z,4.20
2023-03-06T20:24:18.010Z,4.20
2023-03-06T20:26:47.099Z,4.10
2023-03-06T20:29:14.651Z,4.00
2023-03-06T20:31:42.186Z,4.10
2023-03-06T20:34:15.021Z,4.00
2023-03-06T20:36:42.351Z,4.10
2023-03-06T20:39:14.909Z,4.10
2023-03-06T20:41:43.298Z,4.00
2023-03-06T20:44:15.472Z,4.10
2023-03-06T20:46:43.302Z,4.10
2023-03-06T20:49:12.951Z,4.10
2023-03-06T20:51:41.872Z,4.10
2023-03-06T20:54:13.190Z,4.20
2023-03-06T20:56:43.250Z,4.20
2023-03-06T20:59:14.156Z,4.10
2023-03-06T21:01:45.025Z,4.10
2023-03-06T21:04:14.583Z,4.20
2023-03-06T21:06:46.580Z,4.30
2023-03-06T21:09:17.133Z,4.30
2023-03-06T21:11:45.489Z,4.20
2023-03-06T21:14:14.437Z,4.30
2023-03-06T21:16:42.890Z,4.30
2023-03-06T21:19:10.757Z,4.30
2023-03-06T21:21:38.503Z,4.40
2023-03-06T21:24:06.123Z,4.30
2023-03-06T21:26:34.328Z,4.40
2023-03-06T21:29:02.899Z,4.30
2023-03-06T21:31:31.240Z,4.40
2023-03-06T21:33:59.134Z,4.40
2023-03-06T21:36:27.996Z,4.50
2023-03-06T21:38:55.808Z,4.40
2023-03-06T21:41:30.547Z,4.50
2023-03-06T21:44:06.166Z,4.50
2023-03-06T21:46:34.939Z,4.50
2023-03-06T21:49:04.533Z,4.60
2023-03-06T21:51:32.365Z,4.60
2023-03-06T21:53:59.949Z,4.60
2023-03-06T21:56:28.603Z,4.60
2023-03-06T21:59:00.752Z,4.70
2023-03-06T22:01:29.351Z,4.70
2023-03-06T22:03:58.532Z,4.80
2023-03-06T22:06:29.299Z,4.70
2023-03-06T22:08:58.916Z,4.70
2023-03-06T22:11:36.908Z,4.80
2023-03-06T22:14:06.463Z,4.80
2023-03-06T22:16:33.877Z,4.80
2023-03-06T22:19:01.285Z,4.80
2023-03-06T22:21:28.888Z,4.80
2023-03-06T22:23:58.712Z,4.80
2023-03-06T22:26:29.135Z,4.90
2023-03-06T22:28:56.879Z,4.80
2023-03-06T22:31:27.317Z,4.80
2023-03-06T22:33:56.589Z,4.80
2023-03-06T22:36:24.688Z,4.80
2023-03-06T22:38:58.736Z,4.80
2023-03-06T22:41:27.643Z,4.80
2023-03-06T22:43:59.646Z,4.80
2023-03-06T22:46:27.403Z,4.80
2023-03-06T22:48:57.172Z,4.80
2023-03-06T22:51:24.844Z,4.80
2023-03-06T22:53:52.530Z,4.80
2023-03-06T22:56:21.937Z,4.80
2023-03-06T22:58:49.355Z,4.80
2023-03-06T23:01:23.412Z,4.70
2023-03-06T23:03:54.024Z,4.70
2023-03-06T23:06:33.405Z,4.70
2023-03-06T23:09:17.723Z,4.70
2023-03-06T23:11:44.884Z,4.70
2023-03-06T23:14:14.036Z,4.70
2023-03-06T23:16:41.438Z,4.70
2023-03-06T23:19:09.062Z,4.70
2023-03-06T23:21:36.703Z,4.70
2023-03-06T23:24:04.506Z,4.70
2023-03-06T23:26:34.204Z,4.70
2023-03-06T23:29:04.349Z,4.70
2023-03-06T23:31:32.536Z,4.70
2023-03-06T23:34:02.958Z,4.70
2023-03-06T23:36:31.424Z,4.70
2023-03-06T23:38:59.006Z,4.80
2023-03-06T23:41:26.634Z,4.70
2023-03-06T23:43:55.346Z,4.70
2023-03-06T23:46:23.075Z,4.70
2023-03-06T23:48:55.872Z,4.70
2023-03-06T23:51:24.137Z,4.70
2023-03-06T23:53:58.367Z,4.70
2023-03-06T23:56:28.015Z,4.70
2023-03-06T23:58:55.866Z,4.60
